sensor_id;sensor_type;location;lat;lon;timestamp;pressure;altitude;pressure_sealevel;temperature;humidity
5651;BME280;40241;52.684;9.758;2023-06-14T00:00:09;101458.47;;;20.03;35.66
5651;BME280;40241;52.684;9.758;2023-06-14T00:02:35;101457.84;;;19.97;35.86
5651;BME280;40241;52.684;9.758;2023-06-14T00:05:00;101462.03;;;19.90;35.66
5651;BME280;40241;52.684;9.758;2023-06-14T00:07:36;101463.44;;;19.84;37.19
5651;BME280;40241;52.684;9.758;2023-06-14T00:10:04;101469.25;;;19.73;36.06
5651;BME280;40241;52.684;9.758;2023-06-14T00:12:30;101469.56;;;19.69;36.08
5651;BME280;40241;52.684;9.758;2023-06-14T00:14:56;101468.38;;;19.65;36.33
5651;BME280;40241;52.684;9.758;2023-06-14T00:17:22;101471.38;;;19.54;36.18
5651;BME280;40241;52.684;9.758;2023-06-14T00:19:47;101471.50;;;19.48;36.45
5651;BME280;40241;52.684;9.758;2023-06-14T00:22:13;101473.81;;;19.44;36.58
5651;BME280;40241;52.684;9.758;2023-06-14T00:24:38;101481.88;;;19.34;36.60
5651;BME280;40241;52.684;9.758;2023-06-14T00:27:03;101473.88;;;19.25;36.82
5651;BME280;40241;52.684;9.758;2023-06-14T00:29:29;101484.16;;;19.17;37.12
5651;BME280;40241;52.684;9.758;2023-06-14T00:31:55;101488.56;;;19.13;37.12
5651;BME280;40241;52.684;9.758;2023-06-14T00:34:20;101496.03;;;19.05;37.21
5651;BME280;40241;52.684;9.758;2023-06-14T00:36:45;101486.44;;;19.00;37.11
5651;BME280;40241;52.684;9.758;2023-06-14T00:39:11;101494.38;;;18.96;37.56
5651;BME280;40241;52.684;9.758;2023-06-14T00:41:37;101485.34;;;18.90;37.49
5651;BME280;40241;52.684;9.758;2023-06-14T00:44:02;101496.59;;;18.85;37.70
5651;BME280;40241;52.684;9.758;2023-06-14T00:46:28;101498.19;;;18.80;37.83
5651;BME280;40241;52.684;9.758;2023-06-14T00:48:54;101497.75;;;18.76;37.90
5651;BME280;40241;52.684;9.758;2023-06-14T00:51:21;101496.53;;;18.72;38.02
5651;BME280;40241;52.684;9.758;2023-06-14T00:53:46;101502.41;;;18.68;38.02
5651;BME280;40241;52.684;9.758;2023-06-14T00:56:13;101508.50;;;18.66;38.13
5651;BME280;40241;52.684;9.758;2023-06-14T00:58:40;101501.72;;;18.62;38.38
5651;BME280;40241;52.684;9.758;2023-06-14T01:01:05;101504.31;;;18.60;38.22
5651;BME280;40241;52.684;9.758;2023-06-14T01:03:31;101508.75;;;18.50;38.48
5651;BME280;40241;52.684;9.758;2023-06-14T01:06:28;101507.78;;;18.42;40.24
5651;BME280;40241;52.684;9.758;2023-06-14T01:11:41;101501.00;;;18.37;38.99
5651;BME280;40241;52.684;9.758;2023-06-14T01:14:12;101501.31;;;18.34;38.85
5651;BME280;40241;52.684;9.758;2023-06-14T01:16:38;101501.91;;;18.27;38.98
5651;BME280;40241;52.684;9.758;2023-06-14T01:19:05;101510.34;;;18.21;39.23
5651;BME280;40241;52.684;9.758;2023-06-14T01:21:31;101508.06;;;18.20;39.34
5651;BME280;40241;52.684;9.758;2023-06-14T01:24:06;101509.13;;;18.17;39.46
5651;BME280;40241;52.684;9.758;2023-06-14T01:26:32;101515.22;;;18.15;39.51
5651;BME280;40241;52.684;9.758;2023-06-14T01:28:58;101501.28;;;18.15;39.53
5651;BME280;40241;52.684;9.758;2023-06-14T01:31:24;101512.72;;;18.12;39.58
5651;BME280;40241;52.684;9.758;2023-06-14T01:33:50;101507.50;;;18.03;39.92
5651;BME280;40241;52.684;9.758;2023-06-14T01:36:18;101508.81;;;18.02;40.03
5651;BME280;40241;52.684;9.758;2023-06-14T01:38:44;101512.84;;;18.01;39.99
5651;BME280;40241;52.684;9.758;2023-06-14T01:41:11;101511.38;;;18.00;39.89
5651;BME280;40241;52.684;9.758;2023-06-14T01:43:37;101509.44;;;17.89;40.06
5651;BME280;40241;52.684;9.758;2023-06-14T01:46:04;101511.00;;;17.84;40.29
5651;BME280;40241;52.684;9.758;2023-06-14T01:48:31;101518.66;;;17.78;40.43
5651;BME280;40241;52.684;9.758;2023-06-14T01:50:56;101509.84;;;17.74;40.40
5651;BME280;40241;52.684;9.758;2023-06-14T01:53:22;101512.63;;;17.74;40.52
5651;BME280;40241;52.684;9.758;2023-06-14T01:55:47;101519.28;;;17.66;40.60
5651;BME280;40241;52.684;9.758;2023-06-14T01:58:14;101511.47;;;17.64;40.58
5651;BME280;40241;52.684;9.758;2023-06-14T02:00:41;101518.59;;;17.60;40.78
5651;BME280;40241;52.684;9.758;2023-06-14T02:03:08;101508.78;;;17.53;40.84
5651;BME280;40241;52.684;9.758;2023-06-14T02:05:33;101511.34;;;17.46;41.02
5651;BME280;40241;52.684;9.758;2023-06-14T02:07:59;101508.09;;;17.42;41.12
5651;BME280;40241;52.684;9.758;2023-06-14T02:10:25;101511.91;;;17.39;41.28
5651;BME280;40241;52.684;9.758;2023-06-14T02:12:50;101518.75;;;17.38;41.28
5651;BME280;40241;52.684;9.758;2023-06-14T02:15:16;101513.00;;;17.30;41.14
5651;BME280;40241;52.684;9.758;2023-06-14T02:17:45;101519.16;;;17.23;41.50
5651;BME280;40241;52.684;9.758;2023-06-14T02:20:12;101518.91;;;17.21;41.59
5651;BME280;40241;52.684;9.758;2023-06-14T02:22:38;101519.41;;;17.19;41.62
5651;BME280;40241;52.684;9.758;2023-06-14T02:25:03;101517.16;;;17.18;41.69
5651;BME280;40241;52.684;9.758;2023-06-14T02:27:29;101518.94;;;17.15;41.82
5651;BME280;40241;52.684;9.758;2023-06-14T02:29:54;101518.22;;;17.09;41.87
5651;BME280;40241;52.684;9.758;2023-06-14T02:32:19;101520.31;;;17.03;42.09
5651;BME280;40241;52.684;9.758;2023-06-14T02:34:45;101519.31;;;17.01;42.41
5651;BME280;40241;52.684;9.758;2023-06-14T02:37:15;101521.09;;;16.98;42.28
5651;BME280;40241;52.684;9.758;2023-06-14T02:39:40;101528.19;;;16.94;42.20
5651;BME280;40241;52.684;9.758;2023-06-14T02:42:06;101520.13;;;16.90;42.38
5651;BME280;40241;52.684;9.758;2023-06-14T02:44:31;101520.91;;;16.85;42.58
5651;BME280;40241;52.684;9.758;2023-06-14T02:46:57;101529.78;;;16.84;42.70
5651;BME280;40241;52.684;9.758;2023-06-14T02:49:24;101525.22;;;16.81;42.73
5651;BME280;40241;52.684;9.758;2023-06-14T02:51:49;101519.19;;;16.77;42.89
5651;BME280;40241;52.684;9.758;2023-06-14T02:54:15;101524.22;;;16.78;42.85
5651;BME280;40241;52.684;9.758;2023-06-14T02:56:40;101520.47;;;16.76;43.08
5651;BME280;40241;52.684;9.758;2023-06-14T02:59:06;101525.78;;;16.74;43.20
5651;BME280;40241;52.684;9.758;2023-06-14T03:01:32;101533.13;;;16.71;43.26
5651;BME280;40241;52.684;9.758;2023-06-14T03:04:09;101533.41;;;16.68;43.27
5651;BME280;40241;52.684;9.758;2023-06-14T03:06:35;101533.63;;;16.70;43.36
5651;BME280;40241;52.684;9.758;2023-06-14T03:09:01;101546.28;;;16.71;43.34
5651;BME280;40241;52.684;9.758;2023-06-14T03:11:30;101537.41;;;16.72;43.45
5651;BME280;40241;52.684;9.758;2023-06-14T03:13:55;101543.22;;;16.69;43.56
5651;BME280;40241;52.684;9.758;2023-06-14T03:16:21;101550.53;;;16.72;43.65
5651;BME280;40241;52.684;9.758;2023-06-14T03:18:53;101549.28;;;16.73;43.56
5651;BME280;40241;52.684;9.758;2023-06-14T03:21:21;101550.78;;;16.74;43.98
5651;BME280;40241;52.684;9.758;2023-06-14T03:23:47;101554.84;;;16.73;43.80
5651;BME280;40241;52.684;9.758;2023-06-14T03:26:14;101555.34;;;16.71;43.89
5651;BME280;40241;52.684;9.758;2023-06-14T03:28:45;101559.91;;;16.69;43.84
5651;BME280;40241;52.684;9.758;2023-06-14T03:31:12;101558.41;;;16.68;43.88
5651;BME280;40241;52.684;9.758;2023-06-14T03:33:38;101557.16;;;16.63;44.01
5651;BME280;40241;52.684;9.758;2023-06-14T03:36:03;101574.09;;;16.60;44.20
5651;BME280;40241;52.684;9.758;2023-06-14T03:38:29;101569.56;;;16.57;43.97
5651;BME280;40241;52.684;9.758;2023-06-14T03:40:54;101576.91;;;16.54;44.31
5651;BME280;40241;52.684;9.758;2023-06-14T03:43:20;101583.22;;;16.55;44.30
5651;BME280;40241;52.684;9.758;2023-06-14T03:45:45;101581.94;;;16.56;44.49
5651;BME280;40241;52.684;9.758;2023-06-14T03:48:11;101585.47;;;16.56;44.42
5651;BME280;40241;52.684;9.758;2023-06-14T03:50:36;101587.25;;;16.54;44.52
5651;BME280;40241;52.684;9.758;2023-06-14T03:53:06;101586.75;;;16.55;44.54
5651;BME280;40241;52.684;9.758;2023-06-14T03:55:31;101591.03;;;16.56;44.50
5651;BME280;40241;52.684;9.758;2023-06-14T03:57:58;101591.56;;;16.55;44.67
5651;BME280;40241;52.684;9.758;2023-06-14T04:00:23;101595.56;;;16.59;44.72
5651;BME280;40241;52.684;9.758;2023-06-14T04:02:49;101596.81;;;16.64;44.70
5651;BME280;40241;52.684;9.758;2023-06-14T04:05:14;101590.75;;;16.65;44.65
5651;BME280;40241;52.684;9.758;2023-06-14T04:07:42;101596.81;;;16.64;44.70
5651;BME280;40241;52.684;9.758;2023-06-14T04:10:10;101605.16;;;16.64;44.69
5651;BME280;40241;52.684;9.758;2023-06-14T04:12:36;101597.31;;;16.68;44.77
5651;BME280;40241;52.684;9.758;2023-06-14T04:15:01;101601.34;;;16.67;44.86
5651;BME280;40241;52.684;9.758;2023-06-14T04:17:27;101605.13;;;16.69;44.99
5651;BME280;40241;52.684;9.758;2023-06-14T04:19:52;101602.09;;;16.73;44.99
5651;BME280;40241;52.684;9.758;2023-06-14T04:22:17;101605.34;;;16.77;45.02
5651;BME280;40241;52.684;9.758;2023-06-14T04:24:43;101606.59;;;16.81;45.11
5651;BME280;40241;52.684;9.758;2023-06-14T04:27:10;101605.84;;;16.81;45.25
5651;BME280;40241;52.684;9.758;2023-06-14T04:29:35;101607.84;;;16.86;45.15
5651;BME280;40241;52.684;9.758;2023-06-14T04:32:01;101611.34;;;16.92;45.20
5651;BME280;40241;52.684;9.758;2023-06-14T04:34:27;101614.09;;;16.97;45.25
5651;BME280;40241;52.684;9.758;2023-06-14T04:36:56;101610.53;;;17.02;45.31
5651;BME280;40241;52.684;9.758;2023-06-14T04:39:23;101616.06;;;17.08;45.31
5651;BME280;40241;52.684;9.758;2023-06-14T04:41:49;101610.75;;;17.10;45.33
5651;BME280;40241;52.684;9.758;2023-06-14T04:44:21;101618.28;;;17.15;45.35
5651;BME280;40241;52.684;9.758;2023-06-14T04:46:49;101623.81;;;17.20;45.42
5651;BME280;40241;52.684;9.758;2023-06-14T04:49:15;101624.84;;;17.23;45.45
5651;BME280;40241;52.684;9.758;2023-06-14T04:51:41;101618.47;;;17.28;45.50
5651;BME280;40241;52.684;9.758;2023-06-14T04:54:08;101620.47;;;17.33;45.38
5651;BME280;40241;52.684;9.758;2023-06-14T04:56:39;101623.72;;;17.37;45.39
5651;BME280;40241;52.684;9.758;2023-06-14T04:59:05;101626.41;;;17.48;45.46
5651;BME280;40241;52.684;9.758;2023-06-14T05:01:30;101633.78;;;17.51;45.32
5651;BME280;40241;52.684;9.758;2023-06-14T05:03:57;101631.47;;;17.55;45.42
5651;BME280;40241;52.684;9.758;2023-06-14T05:06:22;101626.59;;;17.61;45.41
5651;BME280;40241;52.684;9.758;2023-06-14T05:08:48;101634.94;;;17.67;45.45
5651;BME280;40241;52.684;9.758;2023-06-14T05:11:14;101637.88;;;17.74;45.45
5651;BME280;40241;52.684;9.758;2023-06-14T05:13:39;101637.56;;;17.83;45.23
5651;BME280;40241;52.684;9.758;2023-06-14T05:16:06;101642.56;;;17.90;45.26
5651;BME280;40241;52.684;9.758;2023-06-14T05:18:31;101644.25;;;17.99;45.26
5651;BME280;40241;52.684;9.758;2023-06-14T05:20:59;101648.50;;;18.06;45.40
5651;BME280;40241;52.684;9.758;2023-06-14T05:23:25;101649.22;;;18.12;45.29
5651;BME280;40241;52.684;9.758;2023-06-14T05:25:50;101641.09;;;18.14;45.20
5651;BME280;40241;52.684;9.758;2023-06-14T05:28:16;101651.66;;;18.21;45.14
5651;BME280;40241;52.684;9.758;2023-06-14T05:30:41;101649.03;;;18.28;45.09
5651;BME280;40241;52.684;9.758;2023-06-14T05:33:07;101658.63;;;18.33;45.19
5651;BME280;40241;52.684;9.758;2023-06-14T05:35:32;101644.09;;;18.40;45.15
5651;BME280;40241;52.684;9.758;2023-06-14T05:37:58;101655.94;;;18.51;44.94
5651;BME280;40241;52.684;9.758;2023-06-14T05:40:23;101653.53;;;18.61;44.73
5651;BME280;40241;52.684;9.758;2023-06-14T05:42:49;101660.50;;;18.73;44.82
5651;BME280;40241;52.684;9.758;2023-06-14T05:45:14;101645.97;;;18.80;44.52
5651;BME280;40241;52.684;9.758;2023-06-14T05:47:41;101656.75;;;18.89;44.36
5651;BME280;40241;52.684;9.758;2023-06-14T05:50:06;101663.47;;;18.99;44.44
5651;BME280;40241;52.684;9.758;2023-06-14T05:52:32;101661.13;;;19.03;44.34
5651;BME280;40241;52.684;9.758;2023-06-14T05:54:57;101673.66;;;19.15;43.80
5651;BME280;40241;52.684;9.758;2023-06-14T05:57:22;101664.88;;;19.24;43.89
5651;BME280;40241;52.684;9.758;2023-06-14T05:59:48;101664.50;;;19.33;43.73
5651;BME280;40241;52.684;9.758;2023-06-14T06:02:13;101661.59;;;19.44;43.61
5651;BME280;40241;52.684;9.758;2023-06-14T06:04:39;101666.56;;;19.52;43.33
5651;BME280;40241;52.684;9.758;2023-06-14T06:07:04;101661.97;;;19.54;43.34
5651;BME280;40241;52.684;9.758;2023-06-14T06:09:30;101668.66;;;19.64;43.43
5651;BME280;40241;52.684;9.758;2023-06-14T06:11:56;101670.06;;;19.71;43.27
5651;BME280;40241;52.684;9.758;2023-06-14T06:14:21;101668.19;;;19.79;43.24
5651;BME280;40241;52.684;9.758;2023-06-14T06:16:46;101666.28;;;19.87;42.95
5651;BME280;40241;52.684;9.758;2023-06-14T06:19:12;101667.69;;;19.93;42.93
5651;BME280;40241;52.684;9.758;2023-06-14T06:21:37;101674.16;;;20.01;42.69
5651;BME280;40241;52.684;9.758;2023-06-14T06:24:04;101667.94;;;20.08;42.62
5651;BME280;40241;52.684;9.758;2023-06-14T06:26:30;101669.78;;;20.19;42.53
5651;BME280;40241;52.684;9.758;2023-06-14T06:28:56;101667.44;;;20.23;42.43
5651;BME280;40241;52.684;9.758;2023-06-14T06:31:22;101672.19;;;20.28;42.36
5651;BME280;40241;52.684;9.758;2023-06-14T06:33:47;101675.19;;;20.30;42.34
5651;BME280;40241;52.684;9.758;2023-06-14T06:36:13;101679.94;;;20.35;42.28
5651;BME280;40241;52.684;9.758;2023-06-14T06:38:38;101674.44;;;20.43;42.44
5651;BME280;40241;52.684;9.758;2023-06-14T06:41:03;101676.19;;;20.46;42.09
5651;BME280;40241;52.684;9.758;2023-06-14T06:43:29;101679.97;;;20.48;41.96
5651;BME280;40241;52.684;9.758;2023-06-14T06:45:54;101678.66;;;20.49;42.03
5651;BME280;40241;52.684;9.758;2023-06-14T06:48:19;101676.72;;;20.57;41.90
5651;BME280;40241;52.684;9.758;2023-06-14T06:50:45;101685.13;;;20.70;41.82
5651;BME280;40241;52.684;9.758;2023-06-14T06:53:10;101682.09;;;20.81;41.74
5651;BME280;40241;52.684;9.758;2023-06-14T06:55:35;101687.44;;;20.92;41.72
5651;BME280;40241;52.684;9.758;2023-06-14T06:58:01;101692.41;;;21.00;41.52
5651;BME280;40241;52.684;9.758;2023-06-14T07:00:27;101693.28;;;21.08;41.37
5651;BME280;40241;52.684;9.758;2023-06-14T07:02:52;101692.41;;;21.13;41.27
5651;BME280;40241;52.684;9.758;2023-06-14T07:05:20;101692.63;;;21.15;40.98
5651;BME280;40241;52.684;9.758;2023-06-14T07:07:45;101699.38;;;21.19;41.06
5651;BME280;40241;52.684;9.758;2023-06-14T07:10:10;101702.41;;;21.21;40.88
5651;BME280;40241;52.684;9.758;2023-06-14T07:12:36;101698.72;;;21.26;40.77
5651;BME280;40241;52.684;9.758;2023-06-14T07:15:07;101700.13;;;21.33;40.53
5651;BME280;40241;52.684;9.758;2023-06-14T07:17:33;101704.09;;;21.37;40.38
5651;BME280;40241;52.684;9.758;2023-06-14T07:19:59;101703.09;;;21.48;40.37
5651;BME280;40241;52.684;9.758;2023-06-14T07:22:26;101704.34;;;21.60;40.29
5651;BME280;40241;52.684;9.758;2023-06-14T07:24:51;101703.34;;;21.71;40.04
5651;BME280;40241;52.684;9.758;2023-06-14T07:27:16;101696.31;;;21.77;39.85
5651;BME280;40241;52.684;9.758;2023-06-14T07:29:42;101714.28;;;21.82;39.75
5651;BME280;40241;52.684;9.758;2023-06-14T07:32:07;101695.19;;;21.80;39.89
5651;BME280;40241;52.684;9.758;2023-06-14T07:34:33;101687.47;;;21.86;39.88
5651;BME280;40241;52.684;9.758;2023-06-14T07:36:58;101693.66;;;21.92;39.66
5651;BME280;40241;52.684;9.758;2023-06-14T07:39:23;101689.06;;;22.02;39.66
5651;BME280;40241;52.684;9.758;2023-06-14T07:41:49;101700.38;;;22.10;39.35
5651;BME280;40241;52.684;9.758;2023-06-14T07:44:14;101693.16;;;22.22;39.28
5651;BME280;40241;52.684;9.758;2023-06-14T07:46:41;101684.22;;;22.23;38.99
5651;BME280;40241;52.684;9.758;2023-06-14T07:49:06;101681.06;;;22.27;39.07
5651;BME280;40241;52.684;9.758;2023-06-14T07:51:31;101678.53;;;22.36;39.03
5651;BME280;40241;52.684;9.758;2023-06-14T07:53:59;101678.34;;;22.42;38.79
5651;BME280;40241;52.684;9.758;2023-06-14T07:56:26;101680.47;;;22.49;38.77
5651;BME280;40241;52.684;9.758;2023-06-14T07:58:51;101686.53;;;22.61;38.59
5651;BME280;40241;52.684;9.758;2023-06-14T08:01:17;101688.31;;;22.71;38.55
5651;BME280;40241;52.684;9.758;2023-06-14T08:03:43;101681.44;;;22.80;38.36
5651;BME280;40241;52.684;9.758;2023-06-14T08:06:08;101688.72;;;22.83;38.04
5651;BME280;40241;52.684;9.758;2023-06-14T08:08:33;101682.38;;;22.82;38.00
5651;BME280;40241;52.684;9.758;2023-06-14T08:10:59;101685.22;;;22.90;37.86
5651;BME280;40241;52.684;9.758;2023-06-14T08:13:24;101683.19;;;22.98;37.78
5651;BME280;40241;52.684;9.758;2023-06-14T08:15:49;101692.78;;;23.10;37.75
5651;BME280;40241;52.684;9.758;2023-06-14T08:18:15;101678.63;;;23.23;37.36
5651;BME280;40241;52.684;9.758;2023-06-14T08:20:40;101683.84;;;23.27;37.38
5651;BME280;40241;52.684;9.758;2023-06-14T08:23:06;101682.00;;;23.29;37.17
5651;BME280;40241;52.684;9.758;2023-06-14T08:25:32;101677.16;;;23.37;37.28
5651;BME280;40241;52.684;9.758;2023-06-14T08:27:58;101683.38;;;23.43;36.96
5651;BME280;40241;52.684;9.758;2023-06-14T08:30:23;101685.25;;;23.48;36.97
5651;BME280;40241;52.684;9.758;2023-06-14T08:32:49;101680.41;;;23.56;37.12
5651;BME280;40241;52.684;9.758;2023-06-14T08:35:14;101675.38;;;23.70;36.75
5651;BME280;40241;52.684;9.758;2023-06-14T08:37:41;101677.28;;;23.82;36.55
5651;BME280;40241;52.684;9.758;2023-06-14T08:40:26;101680.63;;;23.96;36.03
5651;BME280;40241;52.684;9.758;2023-06-14T08:42:54;101676.00;;;24.06;36.37
5651;BME280;40241;52.684;9.758;2023-06-14T08:45:21;101676.38;;;24.18;36.41
5651;BME280;40241;52.684;9.758;2023-06-14T08:47:47;101675.41;;;24.30;36.25
5651;BME280;40241;52.684;9.758;2023-06-14T08:50:20;101678.03;;;24.43;36.00
5651;BME280;40241;52.684;9.758;2023-06-14T08:52:48;101680.81;;;24.51;35.91
5651;BME280;40241;52.684;9.758;2023-06-14T08:55:18;101682.84;;;24.58;35.84
5651;BME280;40241;52.684;9.758;2023-06-14T08:57:46;101672.31;;;24.74;35.86
5651;BME280;40241;52.684;9.758;2023-06-14T09:00:12;101681.31;;;24.87;35.79
5651;BME280;40241;52.684;9.758;2023-06-14T09:02:39;101682.38;;;24.99;35.31
5651;BME280;40241;52.684;9.758;2023-06-14T09:05:11;101684.03;;;25.10;35.24
5651;BME280;40241;52.684;9.758;2023-06-14T09:07:41;101677.34;;;25.30;35.14
5651;BME280;40241;52.684;9.758;2023-06-14T09:10:14;101687.44;;;25.41;34.17
5651;BME280;40241;52.684;9.758;2023-06-14T09:12:40;101679.34;;;25.45;34.56
5651;BME280;40241;52.684;9.758;2023-06-14T09:15:07;101692.66;;;25.52;34.63
5651;BME280;40241;52.684;9.758;2023-06-14T09:17:35;101686.41;;;25.61;34.25
5651;BME280;40241;52.684;9.758;2023-06-14T09:20:02;101691.25;;;25.68;34.24
5651;BME280;40241;52.684;9.758;2023-06-14T09:22:30;101689.72;;;25.74;34.46
5651;BME280;40241;52.684;9.758;2023-06-14T09:24:56;101690.66;;;25.69;34.24
5651;BME280;40241;52.684;9.758;2023-06-14T09:27:21;101683.19;;;25.64;34.21
5651;BME280;40241;52.684;9.758;2023-06-14T09:29:46;101691.78;;;25.74;34.38
5651;BME280;40241;52.684;9.758;2023-06-14T09:32:12;101697.38;;;25.81;34.51
5651;BME280;40241;52.684;9.758;2023-06-14T09:34:37;101699.19;;;25.86;33.96
5651;BME280;40241;52.684;9.758;2023-06-14T09:37:03;101690.53;;;25.92;33.71
5651;BME280;40241;52.684;9.758;2023-06-14T09:39:28;101693.41;;;26.09;33.80
5651;BME280;40241;52.684;9.758;2023-06-14T09:41:53;101680.69;;;26.25;33.26
5651;BME280;40241;52.684;9.758;2023-06-14T09:44:19;101688.06;;;26.38;33.36
5651;BME280;40241;52.684;9.758;2023-06-14T09:46:45;101678.19;;;26.63;33.31
5651;BME280;40241;52.684;9.758;2023-06-14T09:49:11;101689.84;;;26.85;32.94
5651;BME280;40241;52.684;9.758;2023-06-14T09:51:42;101680.88;;;26.96;32.18
5651;BME280;40241;52.684;9.758;2023-06-14T09:54:16;101683.16;;;27.07;32.34
5651;BME280;40241;52.684;9.758;2023-06-14T09:56:45;101688.78;;;27.24;31.82
5651;BME280;40241;52.684;9.758;2023-06-14T09:59:12;101680.06;;;27.29;32.25
5651;BME280;40241;52.684;9.758;2023-06-14T10:01:48;101682.84;;;27.46;31.89
5651;BME280;40241;52.684;9.758;2023-06-14T10:04:15;101683.06;;;27.58;32.22
5651;BME280;40241;52.684;9.758;2023-06-14T10:06:43;101675.81;;;27.65;31.80
5651;BME280;40241;52.684;9.758;2023-06-14T10:09:10;101678.34;;;27.70;32.17
5651;BME280;40241;52.684;9.758;2023-06-14T10:11:36;101691.16;;;27.71;31.93
5651;BME280;40241;52.684;9.758;2023-06-14T10:14:04;101679.97;;;27.64;31.79
5651;BME280;40241;52.684;9.758;2023-06-14T10:16:37;101673.63;;;27.46;31.36
5651;BME280;40241;52.684;9.758;2023-06-14T10:19:11;101682.69;;;27.44;31.30
5651;BME280;40241;52.684;9.758;2023-06-14T10:21:50;101683.69;;;27.39;31.32
5651;BME280;40241;52.684;9.758;2023-06-14T10:24:28;101672.19;;;27.11;31.52
5651;BME280;40241;52.684;9.758;2023-06-14T10:26:57;101685.19;;;26.97;32.15
5651;BME280;40241;52.684;9.758;2023-06-14T10:29:23;101672.38;;;27.13;32.09
5651;BME280;40241;52.684;9.758;2023-06-14T10:31:50;101675.56;;;27.26;31.73
5651;BME280;40241;52.684;9.758;2023-06-14T10:34:27;101664.91;;;27.08;31.31
5651;BME280;40241;52.684;9.758;2023-06-14T10:37:06;101671.81;;;26.97;31.87
5651;BME280;40241;52.684;9.758;2023-06-14T10:39:42;101675.94;;;27.13;31.71
5651;BME280;40241;52.684;9.758;2023-06-14T10:42:08;101666.63;;;27.20;31.86
5651;BME280;40241;52.684;9.758;2023-06-14T10:44:45;101672.53;;;27.15;31.13
5651;BME280;40241;52.684;9.758;2023-06-14T10:49:47;101662.94;;;26.84;32.14
5651;BME280;40241;52.684;9.758;2023-06-14T10:52:17;101667.56;;;26.71;32.12
5651;BME280;40241;52.684;9.758;2023-06-14T10:57:29;101666.31;;;26.48;32.38
5651;BME280;40241;52.684;9.758;2023-06-14T10:59:57;101670.72;;;26.41;32.63
5651;BME280;40241;52.684;9.758;2023-06-14T11:03:04;101663.66;;;26.67;32.37
5651;BME280;40241;52.684;9.758;2023-06-14T11:05:51;101659.50;;;27.02;32.16
5651;BME280;40241;52.684;9.758;2023-06-14T11:10:47;101662.00;;;27.42;31.51
5651;BME280;40241;52.684;9.758;2023-06-14T11:13:13;101653.69;;;27.44;31.42
5651;BME280;40241;52.684;9.758;2023-06-14T11:15:39;101656.13;;;27.57;31.38
5651;BME280;40241;52.684;9.758;2023-06-14T11:18:08;101657.97;;;27.72;31.32
5651;BME280;40241;52.684;9.758;2023-06-14T11:20:36;101647.91;;;27.88;31.05
5651;BME280;40241;52.684;9.758;2023-06-14T11:23:03;101654.31;;;27.88;31.26
5651;BME280;40241;52.684;9.758;2023-06-14T11:25:29;101651.31;;;27.86;30.95
5651;BME280;40241;52.684;9.758;2023-06-14T11:27:54;101655.31;;;27.83;30.94
5651;BME280;40241;52.684;9.758;2023-06-14T11:30:23;101647.59;;;27.84;30.81
5651;BME280;40241;52.684;9.758;2023-06-14T11:32:50;101645.50;;;27.84;30.87
5651;BME280;40241;52.684;9.758;2023-06-14T11:35:17;101640.75;;;27.87;30.75
5651;BME280;40241;52.684;9.758;2023-06-14T11:37:43;101642.63;;;27.65;30.64
5651;BME280;40241;52.684;9.758;2023-06-14T11:40:10;101641.81;;;27.55;30.90
5651;BME280;40241;52.684;9.758;2023-06-14T11:42:37;101646.19;;;27.66;30.85
5651;BME280;40241;52.684;9.758;2023-06-14T11:45:04;101644.72;;;27.74;30.62
5651;BME280;40241;52.684;9.758;2023-06-14T11:47:33;101636.56;;;27.78;30.62
5651;BME280;40241;52.684;9.758;2023-06-14T11:50:02;101633.56;;;27.76;30.72
5651;BME280;40241;52.684;9.758;2023-06-14T11:52:28;101638.03;;;27.79;30.57
5651;BME280;40241;52.684;9.758;2023-06-14T11:54:53;101645.22;;;27.80;30.55
5651;BME280;40241;52.684;9.758;2023-06-14T11:57:19;101636.16;;;27.91;30.74
5651;BME280;40241;52.684;9.758;2023-06-14T11:59:45;101630.13;;;28.24;30.50
5651;BME280;40241;52.684;9.758;2023-06-14T12:02:14;101629.25;;;28.59;29.81
5651;BME280;40241;52.684;9.758;2023-06-14T12:04:44;101630.03;;;28.69;30.00
5651;BME280;40241;52.684;9.758;2023-06-14T12:07:10;101623.16;;;28.82;29.67
5651;BME280;40241;52.684;9.758;2023-06-14T12:12:28;101623.16;;;28.44;29.78
5651;BME280;40241;52.684;9.758;2023-06-14T12:14:55;101625.94;;;28.25;29.98
5651;BME280;40241;52.684;9.758;2023-06-14T12:17:21;101612.72;;;28.17;29.98
5651;BME280;40241;52.684;9.758;2023-06-14T12:19:48;101612.41;;;28.33;29.82
5651;BME280;40241;52.684;9.758;2023-06-14T12:22:15;101606.19;;;28.63;29.54
5651;BME280;40241;52.684;9.758;2023-06-14T12:24:44;101611.66;;;28.89;28.97
5651;BME280;40241;52.684;9.758;2023-06-14T12:27:10;101614.19;;;28.85;29.29
5651;BME280;40241;52.684;9.758;2023-06-14T12:29:40;101620.03;;;28.78;29.23
5651;BME280;40241;52.684;9.758;2023-06-14T12:32:06;101614.94;;;28.48;29.22
5651;BME280;40241;52.684;9.758;2023-06-14T12:34:31;101617.94;;;28.31;29.40
5651;BME280;40241;52.684;9.758;2023-06-14T12:36:57;101612.41;;;28.23;29.64
5651;BME280;40241;52.684;9.758;2023-06-14T12:39:22;101610.59;;;28.18;29.54
5651;BME280;40241;52.684;9.758;2023-06-14T12:41:48;101629.50;;;28.15;29.90
5651;BME280;40241;52.684;9.758;2023-06-14T12:44:14;101613.13;;;28.14;29.79
5651;BME280;40241;52.684;9.758;2023-06-14T12:46:41;101612.22;;;28.11;29.58
5651;BME280;40241;52.684;9.758;2023-06-14T12:49:12;101613.81;;;27.95;29.49
5651;BME280;40241;52.684;9.758;2023-06-14T12:51:39;101598.38;;;28.06;29.61
5651;BME280;40241;52.684;9.758;2023-06-14T12:54:05;101606.13;;;28.25;29.32
5651;BME280;40241;52.684;9.758;2023-06-14T12:56:30;101608.09;;;28.32;29.46
5651;BME280;40241;52.684;9.758;2023-06-14T12:58:56;101607.63;;;28.26;29.29
5651;BME280;40241;52.684;9.758;2023-06-14T13:01:21;101608.69;;;28.11;29.26
5651;BME280;40241;52.684;9.758;2023-06-14T13:03:47;101609.97;;;28.00;29.48
5651;BME280;40241;52.684;9.758;2023-06-14T13:06:13;101608.34;;;27.97;29.54
5651;BME280;40241;52.684;9.758;2023-06-14T13:08:38;101619.91;;;27.92;29.35
5651;BME280;40241;52.684;9.758;2023-06-14T13:11:04;101615.88;;;27.85;29.64